Portada
METAR-TAF:

METAR-TAF

Aeroports :

Taïf, Aràbia Saudita

latitud: 21-29N, longitud: 040-33E, altitud: 1478 m

Observació

L'informe es va fer fa 25 minuts, a les 20:00 UTC
Vent 8 kt del Oest
Temperatura 19°C
Humitat 64%
Pressió 1022 hPa
Visibilitat 10 km o més
sense núvols per sota de 1500 mi sense presència de cumulonimbus.

METAR: OETF 042000Z 26008KT CAVOK 19/12 Q1022 NOSIG

Hora: 23:25 (20:25 UTC)

Pronòstic

L'informe es va fer fa 3 hores i 25 minuts, a les 17:00 UTC
Pronòstic vàlid del 04 a les 18 UTC al 05 a les 12 UTC
Vent 8 kt del Oest/Sud-Oest
Visibilitat: 6000 m
Núvols disperses a una alçada de 3000 ft
Temporalment
l' 04 a les 22 UTC al 05 a les 06 UTC
Vent 3 kt amb direcció variable
Visibilitat: 3000 m
Núvols disperses a una alçada de 1500 ft
boirina
Evolucionant progressivament
l' 05 a les 06 UTC al 05 a les 08 UTC
Vent 12 kt del Oest

TAF: OETF 041700Z 0418/0512 25008KT 6000 SCT030 TEMPO 0422/0506 VRB03KT 3000 BR SCT015 BECMG 0506/0508 27012KT

Observacions i pronòstics meteorològics de més de 4000 aeroports (METAR i TAF).

Les estacions disponibles són els punts grocs i vermells al mapa.

Posi el ratolí al punt desitjat per veure el nom de l'estació.

Feu clic per veure les observacions i els pronòstics meteorològics.

Per canviar el mapa: feu clic els botons verds amb una creu de color negre per apropar; al botó verd amb un guió per allunyar la imatge; o en les fletxes verdes per a mapes adjacents.


METAR-TAF: